Shaqra', Yemen
Current Conditions -  °F | °C
As of 12:00 AM on Tuesday 25 Nov 2014 (Local Time) from OYAA Reporting Station
Clear Clear  
Wind Chill: 75°   Ceiling: Unl
Heat Index: 75°   Visibility: 6mi
Dew Point: 66°   Wind: 6mph
Humidity: 73%   Direction: 60°ENE
Pressure: 29.88"   Gusts: NA
Location:  13.36°N, 45.69°E
Report Text: OYAA 242100Z 06005KT CAV0K 24/19 Q1012
Loading
Personal Weather Stations






























Interactive Weather Map New forecast layout! Learn more

10-Day Weather Forecast

Advertisements
Track Severe Weather on mobile